• Join FlightAware (Why Join?)
  • Login
  • US Flag 
11:07PM EDT


 

Airport Tracker/Info


-or-


 

Live Flight TrackerFlight Track Log ✈ GGN7282 ✈ 02-Sep-2013 ✈ CYYZ - KALB

Flight Track Log - Related Links

Times and Time Zones

All times are in EDT time to prevent confusion due to time zone crossing. See the GGN7282 flight status page for this flight to view local times or setup timezone preferences in your user account.

Time Position Orientation Groundspeed Altitude Reporting Facility
EDT Latitude Longitude Course Direction KTS MPH feet Rate Location/Type
03:29PM 43.6667 -79.6333 180° South 150 173 1,400  Level Toronto Center
03:30PM 43.6167 -79.6333 180° South 170 196 3,000 900 Climbing Toronto Center
03:31PM 43.5500 -79.6167 170° South 230 265 3,300 480 Climbing Toronto Center
03:32PM 43.4833 -79.5833 160° South 220 253 4,000 1,080 Climbing Toronto Center
03:33PM 43.4500 -79.5167 125° Southeast 240 276 5,500 960 Climbing Toronto Center
03:34PM 43.4500 -79.4333 90° East 240 276 6,000 600 Climbing Toronto Center
03:35PM 43.4500 -79.3333 90° East 260 299 6,800 960 Climbing Toronto Center
03:36PM 43.4333 -79.2500 105° East 260 299 8,000 1,320 Climbing Toronto Center
03:37PM 43.4333 -79.1333 90° East 250 288 9,500 1,320 Climbing Toronto Center
03:38PM 43.4333 -79.0333 90° East 250 288 10,700 1,320 Climbing Toronto Center
03:39PM 43.4167 -78.9500 105° East 250 288 12,200 1,440 Climbing Toronto Center
03:40PM 43.4000 -78.8500 103° East 250 288 13,600 1,500 Climbing Toronto Center
03:41PM 43.3667 -78.7833 125° Southeast 240 276 15,200 1,620 Climbing Toronto Center
03:42PM 43.3442 -78.7619 145° Southeast 236 272 16,500 1,560 Climbing Cleveland Center
03:43PM 43.3075 -78.6833 123° Southeast 236 272 18,000 1,500 Climbing Cleveland Center
03:44PM 43.2686 -78.6047 124° Southeast 236 272 19,600 1,500 Climbing Cleveland Center
03:45PM 43.2319 -78.5317 125° Southeast 241 277 21,000 1,200 Climbing Cleveland Center
03:46PM 43.2011 -78.4444 116° Southeast 241 277 22,000 900 Climbing Cleveland Center
03:47PM 43.1619 -78.3603 123° Southeast 247 284 22,900 900 Climbing Cleveland Center
03:48PM 43.1169 -78.2853 129° Southeast 253 291 23,900 900 Climbing Cleveland Center
03:49PM 43.1125 -78.1772 93° East 253 291 24,700 600 Climbing Cleveland Center
03:50PM 43.0936 -78.0700 104° East 269 310 25,200 180 Climbing Cleveland Center
03:51PM 43.0622 -77.9661 112° Southeast 283 326 25,100 -60 Descending Cleveland Center
03:52PM 43.0261 -77.8567 114° Southeast 296 341 25,100  Level Cleveland Center
03:53PM 42.9906 -77.7533 115° Southeast 301 346 25,200 -60 Climbing Cleveland Center
03:54PM 42.9875 -77.6369 92° East 301 346 25,000 -120 Descending Cleveland Center
03:55PM 42.9844 -77.5208 92° East 301 346 25,000  Level Cleveland Center
03:56PM 42.9772 -77.4047 95° East 301 346 25,000  Level Cleveland Center
03:57PM 42.9717 -77.2803 93° East 301 346 25,100  Climbing Cleveland Center
03:58PM 42.9639 -77.1614 95° East 301 346 25,000 -120 Descending Cleveland Center
03:59PM 42.9606 -77.0481 92° East 301 346 24,900  Descending Cleveland Center
04:00PM 42.9467 -76.8458 95° East 306 352 25,000  Climbing Boston Center
04:01PM 42.9428 -76.7322 93° East 306 352 24,900 -60 Descending Boston Center
04:02PM 42.9364 -76.6181 94° East 301 346 24,900  Level Boston Center
04:03PM 42.9300 -76.5069 94° East 296 341 24,900  Level Boston Center
04:04PM 42.9258 -76.3906 93° East 296 341 25,000 60 Climbing Boston Center
04:05PM 42.9194 -76.2767 94° East 296 341 25,100  Climbing Boston Center
04:06PM 42.9125 -76.1656 95° East 296 341 25,000 -60 Descending Boston Center
04:07PM 42.9078 -76.0575 93° East 296 341 25,000  Level Boston Center
04:08PM 42.8964 -75.9519 98° East 291 335 25,000  Level Boston Center
04:09PM 42.8933 -75.8469 92° East 284 327 25,000 -540 Level Boston Center
04:10PM 42.8842 -75.7331 96° East 284 327 24,000 -780 Descending Boston Center
04:11PM 42.8728 -75.6192 98° East 297 342 23,500 -540 Descending Boston Center
04:12PM 42.8678 -75.4997 93° East 302 348 23,000 -300 Descending Boston Center
04:13PM 42.8625 -75.3861 94° East 302 348 23,000 -300 Level Boston Center
04:14PM 42.8528 -75.2781 97° East 297 342 22,400 -720 Descending Boston Center
04:15PM 42.8450 -75.1644 95° East 292 336 21,600 -900 Descending Boston Center
04:16PM 42.8458 -75.0483 89° East 292 336 20,600 -1,320 Descending Boston Center
04:17PM 42.8492 -74.9833 86° East 316 364 19,600 -1,920 Descending Boston Center
04:18PM 42.8539 -74.8672 87° East 306 352 17,700 -1,800 Descending Boston Center
04:19PM 42.8564 -74.7456 88° East 297 342 15,800 -1,980 Descending Boston Center
04:20PM 42.8608 -74.6269 87° East 291 335 13,600 -2,100 Descending Boston Center
04:21PM 42.8628 -74.5192 89° East 289 333 11,600 -1,680 Descending Boston Center
04:22PM 42.8667 -74.4175 87° East 262 302 10,300 -1,440 Descending Boston Center
04:23PM 42.8725 -74.3269 85° East 252 290 8,900 -1,320 Descending Boston Center
04:24PM 42.8889 -74.2197 78° East 272 313 7,700 -1,200 Descending Boston Center
04:25PM 42.8964 -74.1264 84° East 274 315 6,500 -1,260 Descending Boston Center
04:26PM 42.9042 -74.0189 84° East 276 318 5,300 -1,380 Descending Boston Center
04:27PM 42.9139 -73.9283 82° East 243 280 3,800 -1,440 Descending Boston Center
04:28PM 42.9211 -73.8406 84° East 212 244 2,500 -900 Descending Boston Center
04:29PM 42.8797 -73.8114 153° Southeast 164 189 2,000 -420 Descending Boston Center
04:30PM 42.8361 -73.8133 182° South 161 185 1,700 -540 Descending Boston Center
04:31PM 42.7964 -73.8097 176° South 136 157 1,000 -780 Descending Boston Center
04:32PM 42.7611 -73.8089 179° South 129 148 300 -720 Descending Boston Center
04:34PM 42.7491 -73.8020 North  Level Estimated
04:41PM 42.7491 -73.8020 North  Level Estimated
04:42PM 42.7491 -73.8020 North  Level Estimated